Lobos, Argentina
Current Conditions -  °F | °C
As of 11:00 PM on Saturday 20 Dec 2014 (Local Time) from SAEZ Reporting Station
Scattered Clouds Scattered Clouds  
Wind Chill: 68°   Ceiling: Unl
Heat Index: 68°   Visibility: 6mi
Dew Point: 63°   Wind: 14mph
Humidity: 83%   Direction: 160°SSE
Pressure: 29.68"   Gusts: NA
Location:  35.18°S, 59.1°W
Report Text: SAEZ 210200Z 16012KT 9999 FEW030 SCT050 20/17 Q1005
Loading
Personal Weather Stations






























Interactive Weather Map New forecast layout! Learn more

10-Day Weather Forecast

Advertisements
Track Severe Weather on mobile